createdAt,value
2022-12-03T00:02:19.396Z,32.72
2022-12-03T00:04:46.861Z,36.03
2022-12-03T00:07:14.202Z,32.35
2022-12-03T00:09:42.955Z,33.05
2022-12-03T00:12:10.524Z,37.50
2022-12-03T00:14:53.255Z,34.92
2022-12-03T00:17:20.846Z,39.28
2022-12-03T00:19:48.210Z,37.30
2022-12-03T00:22:15.590Z,27.30
2022-12-03T00:24:44.283Z,36.88
2022-12-03T00:27:11.646Z,31.67
2022-12-03T00:29:39.326Z,33.13
2022-12-03T00:32:06.740Z,31.50
2022-12-03T00:34:34.122Z,31.30
2022-12-03T00:37:01.498Z,31.08
2022-12-03T00:39:28.896Z,35.08
2022-12-03T00:41:57.636Z,32.45
2022-12-03T00:44:24.992Z,34.88
2022-12-03T00:46:52.414Z,34.22
2022-12-03T00:49:19.864Z,37.88
2022-12-03T00:51:47.239Z,33.03
2022-12-03T00:54:14.640Z,39.97
2022-12-03T00:56:42.027Z,34.78
2022-12-03T00:59:10.733Z,36.80
2022-12-03T01:01:38.204Z,37.58
2022-12-03T01:04:05.803Z,34.75
2022-12-03T01:06:33.195Z,35.17
2022-12-03T01:09:00.625Z,33.40
2022-12-03T01:11:41.189Z,35.60
2022-12-03T01:14:11.481Z,37.75
2022-12-03T01:16:39.466Z,38.65
2022-12-03T01:19:07.381Z,37.95
2022-12-03T01:24:02.208Z,36.15
2022-12-03T01:26:29.615Z,36.75
2022-12-03T01:28:57.017Z,37.50
2022-12-03T01:31:43.508Z,38.05
2022-12-03T01:34:10.895Z,39.72
2022-12-03T01:36:38.270Z,37.40
2022-12-03T01:39:05.807Z,34.50
2022-12-03T01:41:34.093Z,36.08
2022-12-03T01:44:01.940Z,41.20
2022-12-03T01:48:57.901Z,38.33
2022-12-03T01:51:25.370Z,35.72
2022-12-03T01:53:52.821Z,40.92
2022-12-03T01:56:20.215Z,37.72
2022-12-03T01:58:47.997Z,39.05
2022-12-03T02:03:43.099Z,41.03
2022-12-03T02:08:40.764Z,44.83
2022-12-03T02:11:10.361Z,41.78
2022-12-03T02:13:38.185Z,39.92
2022-12-03T02:18:32.938Z,43.53
2022-12-03T02:21:03.752Z,42.28
2022-12-03T02:23:34.582Z,46.05
2022-12-03T02:26:03.283Z,46.10
2022-12-03T02:28:30.662Z,42.40
2022-12-03T02:30:58.100Z,34.78
2022-12-03T02:33:25.515Z,51.03
2022-12-03T02:35:52.892Z,43.45
2022-12-03T02:38:21.868Z,48.50
2022-12-03T02:40:50.640Z,52.97
2022-12-03T02:43:20.199Z,47.88
2022-12-03T02:45:48.583Z,47.95
2022-12-03T02:48:17.439Z,46.53
2022-12-03T02:50:49.613Z,53.08
2022-12-03T02:53:19.010Z,53.92
2022-12-03T02:55:46.863Z,46.55
2022-12-03T03:00:43.202Z,51.40
2022-12-03T03:03:11.035Z,47.67
2022-12-03T03:05:39.515Z,46.17
2022-12-03T03:08:07.982Z,53.35
2022-12-03T03:10:36.183Z,57.13
2022-12-03T03:13:04.534Z,56.53
2022-12-03T03:15:31.922Z,54.88
2022-12-03T03:18:00.621Z,45.58
2022-12-03T03:20:28.023Z,52.15
2022-12-03T03:22:55.418Z,51.60
2022-12-03T03:25:24.575Z,54.17
2022-12-03T03:27:52.734Z,58.40
2022-12-03T03:30:20.154Z,57.45
2022-12-03T03:32:47.561Z,55.28
2022-12-03T03:35:17.815Z,62.53
2022-12-03T03:37:45.277Z,60.05
2022-12-03T03:40:12.725Z,55.65
2022-12-03T03:42:40.343Z,56.13
2022-12-03T03:45:08.735Z,56.80
2022-12-03T03:47:36.551Z,54.63
2022-12-03T03:52:32.594Z,62.28
2022-12-03T03:55:00.201Z,57.53
2022-12-03T03:57:27.626Z,52.38
2022-12-03T03:59:55.015Z,49.30
2022-12-03T04:02:23.931Z,53.67
2022-12-03T04:04:52.110Z,54.53
2022-12-03T04:07:19.715Z,60.28
2022-12-03T04:09:48.503Z,57.22
2022-12-03T04:12:33.644Z,54.45
2022-12-03T04:15:01.038Z,59.50
2022-12-03T04:17:28.398Z,63.03
2022-12-03T04:19:55.886Z,60.50
2022-12-03T04:22:40.573Z,63.30
2022-12-03T04:25:33.885Z,65.07
2022-12-03T04:28:18.710Z,60.35
2022-12-03T04:30:46.127Z,70.32
2022-12-03T04:33:31.151Z,57.88
2022-12-03T04:35:58.544Z,65.65
2022-12-03T04:38:25.946Z,64.13
2022-12-03T04:41:04.701Z,62.40
2022-12-03T04:43:32.857Z,62.67
2022-12-03T04:46:00.648Z,69.63
2022-12-03T04:50:55.264Z,60.70
2022-12-03T04:53:22.655Z,59.58
2022-12-03T04:55:50.020Z,58.65
2022-12-03T04:58:18.745Z,68.05
2022-12-03T05:00:46.247Z,65.97
2022-12-03T05:03:13.589Z,59.25
2022-12-03T05:05:40.963Z,63.45
2022-12-03T05:08:08.425Z,62.08
2022-12-03T05:10:35.790Z,56.83
2022-12-03T05:13:03.169Z,63.50
2022-12-03T05:15:32.022Z,69.72
2022-12-03T05:17:59.389Z,56.00
2022-12-03T05:20:48.378Z,61.38
2022-12-03T05:23:18.796Z,57.58
2022-12-03T05:25:46.170Z,62.10
2022-12-03T05:28:13.595Z,65.65
2022-12-03T05:30:42.346Z,66.35
2022-12-03T05:33:09.724Z,62.28
2022-12-03T05:35:37.103Z,65.50
2022-12-03T05:38:04.486Z,74.40
2022-12-03T05:40:46.995Z,67.53
2022-12-03T05:43:13.410Z,59.95
2022-12-03T05:45:44.109Z,62.70
2022-12-03T05:48:12.684Z,65.07
2022-12-03T05:50:40.753Z,74.53
2022-12-03T05:53:18.067Z,67.60
2022-12-03T05:55:45.456Z,70.97
2022-12-03T05:58:12.892Z,56.13
2022-12-03T06:00:43.047Z,69.80
2022-12-03T06:03:11.201Z,60.55
2022-12-03T06:05:38.827Z,59.58
2022-12-03T06:08:06.307Z,59.20
2022-12-03T06:10:33.766Z,62.65
2022-12-03T06:13:02.067Z,64.93
2022-12-03T06:15:29.525Z,63.80
2022-12-03T06:17:58.237Z,62.92
2022-12-03T06:20:25.602Z,66.50
2022-12-03T06:22:52.978Z,63.55
2022-12-03T06:25:20.372Z,79.75
2022-12-03T06:27:47.786Z,58.03
2022-12-03T06:30:15.407Z,59.60
2022-12-03T06:32:42.767Z,73.80
2022-12-03T06:35:12.490Z,60.78
2022-12-03T06:37:39.874Z,70.65
2022-12-03T06:40:07.979Z,70.28
2022-12-03T06:42:35.347Z,73.20
2022-12-03T06:45:03.325Z,67.28
2022-12-03T06:47:30.695Z,61.58
2022-12-03T06:49:58.046Z,63.03
2022-12-03T06:52:26.740Z,68.60
2022-12-03T06:54:54.432Z,62.10
2022-12-03T06:59:49.232Z,58.80
2022-12-03T07:02:16.583Z,59.42
2022-12-03T07:04:46.441Z,62.88
2022-12-03T07:07:14.135Z,64.72
2022-12-03T07:09:42.827Z,62.38
2022-12-03T07:12:10.170Z,76.28
2022-12-03T07:14:38.483Z,67.72
2022-12-03T07:17:05.874Z,64.00
2022-12-03T07:19:33.395Z,59.00
2022-12-03T07:22:00.835Z,62.92
2022-12-03T07:24:28.204Z,58.63
2022-12-03T07:26:56.932Z,65.78
2022-12-03T07:29:24.277Z,60.38
2022-12-03T07:31:51.695Z,54.75
2022-12-03T07:34:19.178Z,62.08
2022-12-03T07:36:46.583Z,64.05
2022-12-03T07:39:14.072Z,71.57
2022-12-03T07:41:41.449Z,60.15
2022-12-03T07:44:14.218Z,59.05
2022-12-03T07:46:42.153Z,67.28
2022-12-03T07:49:09.638Z,59.70
2022-12-03T07:51:37.027Z,51.90
2022-12-03T07:54:04.443Z,53.60
2022-12-03T07:56:31.842Z,57.08
2022-12-03T07:58:59.252Z,62.60
2022-12-03T08:01:28.055Z,54.33
2022-12-03T08:03:55.517Z,59.17
2022-12-03T08:06:22.926Z,51.92
2022-12-03T08:08:50.471Z,56.65
2022-12-03T08:11:18.118Z,64.63
2022-12-03T08:13:45.536Z,52.13
2022-12-03T08:16:17.634Z,54.92
2022-12-03T08:18:46.796Z,58.15
2022-12-03T08:21:15.508Z,55.67
2022-12-03T08:23:43.003Z,62.92
2022-12-03T08:26:18.069Z,51.83
2022-12-03T08:28:45.470Z,55.67
2022-12-03T08:31:18.427Z,60.78
2022-12-03T08:33:47.730Z,58.60
2022-12-03T08:36:17.437Z,59.40
2022-12-03T08:38:47.151Z,60.70
2022-12-03T08:41:15.719Z,62.22
2022-12-03T08:43:43.805Z,58.03
2022-12-03T08:46:12.822Z,53.65
2022-12-03T08:48:47.084Z,52.00
2022-12-03T08:51:21.039Z,55.28
2022-12-03T08:53:49.279Z,54.75
2022-12-03T08:56:23.560Z,53.85
2022-12-03T08:58:53.317Z,52.65
2022-12-03T09:01:31.486Z,54.25
2022-12-03T09:04:03.260Z,58.42
2022-12-03T09:06:32.411Z,55.47
2022-12-03T09:09:03.810Z,58.97
2022-12-03T09:11:34.125Z,56.92
2022-12-03T09:14:02.011Z,60.08
2022-12-03T09:16:29.541Z,58.47
2022-12-03T09:18:56.964Z,54.38
2022-12-03T09:21:24.315Z,56.03
2022-12-03T09:23:53.059Z,58.83
2022-12-03T09:26:20.473Z,57.47
2022-12-03T09:28:48.182Z,58.92
2022-12-03T09:31:15.998Z,53.50
2022-12-03T09:36:10.714Z,55.17
2022-12-03T09:38:40.794Z,50.65
2022-12-03T09:41:12.119Z,59.33
2022-12-03T09:46:26.999Z,76.28
2022-12-03T09:48:55.407Z,54.35
2022-12-03T09:51:31.391Z,61.75
2022-12-03T09:53:59.355Z,60.22
2022-12-03T09:56:28.046Z,61.70
2022-12-03T09:58:55.475Z,62.30
2022-12-03T10:01:25.010Z,59.08
2022-12-03T10:03:55.403Z,55.40
2022-12-03T10:06:23.850Z,55.13
2022-12-03T10:08:53.178Z,59.38
2022-12-03T10:11:21.864Z,58.55
2022-12-03T10:13:54.102Z,65.18
2022-12-03T10:16:21.945Z,60.97
2022-12-03T10:21:21.207Z,59.55
2022-12-03T10:23:55.145Z,52.90
2022-12-03T10:26:36.650Z,58.97
2022-12-03T10:29:12.371Z,66.13
2022-12-03T10:31:39.775Z,61.70
2022-12-03T10:34:07.170Z,56.00
2022-12-03T10:36:34.615Z,54.83
2022-12-03T10:39:10.063Z,60.53
2022-12-03T10:41:37.685Z,56.92
2022-12-03T10:44:18.484Z,55.92
2022-12-03T10:46:46.402Z,59.75
2022-12-03T10:49:17.056Z,55.88
2022-12-03T10:51:45.560Z,51.40
2022-12-03T10:54:19.065Z,56.85
2022-12-03T10:56:47.343Z,57.28
2022-12-03T10:59:20.471Z,58.17
2022-12-03T11:01:48.378Z,54.20
2022-12-03T11:06:43.047Z,54.53
2022-12-03T11:09:15.005Z,56.05
2022-12-03T11:11:42.403Z,62.63
2022-12-03T11:14:11.221Z,57.35
2022-12-03T11:19:59.105Z,52.40
2022-12-03T11:22:39.364Z,54.63
2022-12-03T11:25:25.352Z,56.15
2022-12-03T11:28:07.692Z,58.17
2022-12-03T11:30:56.579Z,77.32
2022-12-03T11:33:24.723Z,57.53
2022-12-03T11:36:06.988Z,58.03
2022-12-03T11:38:53.381Z,54.22
2022-12-03T11:41:22.742Z,58.05
2022-12-03T11:44:03.988Z,63.33
2022-12-03T11:46:38.712Z,55.72
2022-12-03T11:49:29.654Z,59.15
2022-12-03T11:51:57.373Z,55.15
2022-12-03T11:54:26.087Z,53.25
2022-12-03T11:56:54.078Z,64.45
2022-12-03T11:59:21.440Z,52.95
2022-12-03T12:01:48.918Z,58.75
2022-12-03T12:04:30.355Z,52.90
2022-12-03T12:06:57.910Z,57.08
2022-12-03T12:09:44.218Z,60.63
2022-12-03T12:12:28.782Z,56.13
2022-12-03T12:14:56.590Z,53.67
2022-12-03T12:19:54.562Z,69.88
2022-12-03T12:22:30.721Z,58.13
2022-12-03T12:24:58.665Z,51.72
2022-12-03T12:27:32.646Z,53.13
2022-12-03T12:30:00.961Z,51.88
2022-12-03T12:32:29.076Z,58.28
2022-12-03T12:34:59.042Z,54.00
2022-12-03T12:37:28.459Z,60.15
2022-12-03T12:39:57.521Z,60.85
2022-12-03T12:42:33.815Z,50.42
2022-12-03T12:45:03.111Z,57.08
2022-12-03T12:47:31.146Z,55.80
2022-12-03T12:49:59.211Z,61.33
2022-12-03T12:54:54.098Z,57.50
2022-12-03T12:57:22.805Z,54.90
2022-12-03T12:59:51.979Z,62.40
2022-12-03T13:02:35.526Z,53.38
2022-12-03T13:05:03.291Z,53.42
2022-12-03T13:07:31.180Z,55.25
2022-12-03T13:09:59.301Z,53.85
2022-12-03T13:12:26.841Z,45.83
2022-12-03T13:14:58.179Z,59.35
2022-12-03T13:17:26.147Z,50.13
2022-12-03T13:20:05.191Z,60.55
2022-12-03T13:22:34.914Z,48.17
2022-12-03T13:25:03.987Z,49.50
2022-12-03T13:27:31.845Z,58.30
2022-12-03T13:32:32.320Z,54.15
2022-12-03T13:35:02.181Z,52.92
2022-12-03T13:37:29.604Z,52.47
2022-12-03T13:39:58.935Z,56.10
2022-12-03T13:42:41.741Z,54.58
2022-12-03T13:45:27.357Z,51.97
2022-12-03T13:47:56.729Z,55.90
2022-12-03T13:50:27.291Z,57.45
2022-12-03T13:52:54.888Z,53.72
2022-12-03T13:55:23.899Z,52.97
2022-12-03T13:57:51.295Z,56.90
2022-12-03T14:00:19.116Z,52.83
2022-12-03T14:05:15.653Z,47.30
2022-12-03T14:07:43.151Z,52.47
2022-12-03T14:10:12.406Z,53.97
2022-12-03T14:12:39.822Z,48.17
2022-12-03T14:15:08.479Z,48.53
2022-12-03T14:17:35.845Z,55.22
2022-12-03T14:20:03.728Z,59.03
2022-12-03T14:24:59.723Z,60.60
2022-12-03T14:27:27.449Z,51.28
2022-12-03T14:29:55.039Z,48.88
2022-12-03T14:32:22.565Z,50.67
2022-12-03T14:34:49.935Z,51.53
2022-12-03T14:37:17.314Z,53.10
2022-12-03T14:39:44.694Z,55.10
2022-12-03T14:42:16.642Z,52.10
2022-12-03T14:44:45.286Z,55.15
2022-12-03T14:47:13.016Z,49.00
2022-12-03T14:49:40.425Z,50.08
2022-12-03T14:52:11.908Z,51.45
2022-12-03T14:54:41.835Z,52.75
2022-12-03T14:57:09.308Z,53.15
2022-12-03T14:59:38.055Z,48.30
2022-12-03T15:02:05.692Z,48.53
2022-12-03T15:04:33.063Z,57.90
2022-12-03T15:07:00.461Z,47.40
2022-12-03T15:09:27.870Z,49.63
2022-12-03T15:11:55.225Z,49.90
2022-12-03T15:14:22.779Z,47.88
2022-12-03T15:16:51.649Z,48.70
2022-12-03T15:19:19.109Z,37.33
2022-12-03T15:21:46.479Z,51.58
2022-12-03T15:24:13.899Z,49.03
2022-12-03T15:26:41.296Z,49.90
2022-12-03T15:29:08.753Z,46.35
2022-12-03T15:31:36.277Z,47.20
2022-12-03T15:34:06.040Z,49.50
2022-12-03T15:36:33.463Z,49.05
2022-12-03T15:39:00.850Z,51.17
2022-12-03T15:41:29.859Z,65.40
2022-12-03T15:43:58.173Z,42.78
2022-12-03T15:46:25.968Z,43.67
2022-12-03T15:51:22.229Z,47.50
2022-12-03T15:53:49.791Z,49.08
2022-12-03T15:56:17.207Z,44.97
2022-12-03T15:58:44.860Z,50.38
2022-12-03T16:01:13.657Z,54.58
2022-12-03T16:03:41.646Z,45.03
2022-12-03T16:08:37.603Z,42.78
2022-12-03T16:11:04.985Z,46.53
2022-12-03T16:13:32.361Z,46.97
2022-12-03T16:15:59.837Z,52.80
2022-12-03T16:18:27.258Z,51.33
2022-12-03T16:20:54.603Z,46.42
2022-12-03T16:23:22.018Z,42.63
2022-12-03T16:25:50.897Z,49.30
2022-12-03T16:28:18.376Z,52.17
2022-12-03T16:30:45.794Z,42.53
2022-12-03T16:33:13.191Z,44.78
2022-12-03T16:35:40.577Z,47.65
2022-12-03T16:38:08.078Z,50.63
2022-12-03T16:40:35.790Z,43.67
2022-12-03T16:46:01.421Z,55.95
2022-12-03T16:50:56.270Z,46.47
2022-12-03T16:53:23.688Z,46.75
2022-12-03T16:55:51.072Z,53.83
2022-12-03T16:58:21.124Z,41.38
2022-12-03T17:00:50.256Z,45.67
2022-12-03T17:03:18.287Z,45.70
2022-12-03T17:05:45.794Z,42.22
2022-12-03T17:08:13.287Z,46.17
2022-12-03T17:10:41.022Z,43.60
2022-12-03T17:15:37.915Z,48.78
2022-12-03T17:18:07.172Z,53.20
2022-12-03T17:20:35.687Z,51.00
2022-12-03T17:23:03.540Z,46.30
2022-12-03T17:27:58.160Z,46.42
2022-12-03T17:30:25.582Z,47.70
2022-12-03T17:32:53.067Z,48.80
2022-12-03T17:35:21.832Z,45.83
2022-12-03T17:37:49.287Z,47.55
2022-12-03T17:40:18.096Z,44.80
2022-12-03T17:42:45.465Z,47.08
2022-12-03T17:45:12.885Z,52.55
2022-12-03T17:47:40.279Z,54.47
2022-12-03T17:50:08.465Z,54.72
2022-12-03T17:52:37.134Z,47.70
2022-12-03T17:55:17.817Z,44.72
2022-12-03T17:57:51.268Z,49.50
2022-12-03T18:00:19.340Z,48.55
2022-12-03T18:02:46.712Z,50.15
2022-12-03T18:05:14.488Z,48.58
2022-12-03T18:10:10.727Z,47.85
2022-12-03T18:12:38.240Z,48.20
2022-12-03T18:15:06.236Z,50.20
2022-12-03T18:17:33.603Z,50.60
2022-12-03T18:20:02.296Z,51.15
2022-12-03T18:24:56.968Z,53.00
2022-12-03T18:27:25.703Z,55.53
2022-12-03T18:29:53.455Z,49.58
2022-12-03T18:34:56.744Z,61.20
2022-12-03T18:37:26.330Z,63.65
2022-12-03T18:39:54.041Z,52.97
2022-12-03T18:42:23.725Z,72.90
2022-12-03T18:44:53.535Z,56.22
2022-12-03T18:47:21.553Z,53.78
2022-12-03T18:49:48.986Z,60.65
2022-12-03T18:52:17.237Z,51.72
2022-12-03T18:54:44.671Z,53.67
2022-12-03T18:57:12.046Z,51.38
2022-12-03T18:59:39.494Z,53.78
2022-12-03T19:02:08.708Z,51.50
2022-12-03T19:04:36.122Z,53.47
2022-12-03T19:07:04.063Z,57.72
2022-12-03T19:09:31.404Z,50.38
2022-12-03T19:11:58.952Z,56.63
2022-12-03T19:14:26.342Z,58.58
2022-12-03T19:16:53.775Z,53.30
2022-12-03T19:19:27.052Z,59.85
2022-12-03T19:21:54.701Z,58.95
2022-12-03T19:24:24.811Z,58.28
2022-12-03T19:26:55.143Z,62.25
2022-12-03T19:29:23.274Z,62.67
2022-12-03T19:31:51.217Z,55.83
2022-12-03T19:34:19.080Z,64.05
2022-12-03T19:39:16.111Z,58.92
2022-12-03T19:41:44.567Z,56.83
2022-12-03T19:44:12.879Z,62.45
2022-12-03T19:46:40.269Z,66.88
2022-12-03T19:49:07.961Z,65.95
2022-12-03T19:51:36.188Z,66.47
2022-12-03T19:54:04.662Z,65.97
2022-12-03T19:56:36.364Z,58.65
2022-12-03T19:59:06.027Z,61.15
2022-12-03T20:01:35.143Z,65.53
2022-12-03T20:04:05.580Z,63.08
2022-12-03T20:06:34.345Z,64.47
2022-12-03T20:09:03.960Z,65.03
2022-12-03T20:11:34.079Z,65.07
2022-12-03T20:14:09.865Z,60.35
2022-12-03T20:16:37.751Z,65.32
2022-12-03T20:19:07.482Z,65.43
2022-12-03T20:21:36.985Z,66.03
2022-12-03T20:24:07.318Z,60.28
2022-12-03T20:26:37.736Z,62.83
2022-12-03T20:29:05.704Z,59.70
2022-12-03T20:31:35.234Z,59.55
2022-12-03T20:34:03.371Z,62.75
2022-12-03T20:36:31.954Z,62.95
2022-12-03T20:39:01.326Z,66.32
2022-12-03T20:41:29.157Z,57.58
2022-12-03T20:51:23.047Z,68.35
2022-12-03T20:53:51.226Z,64.60
2022-12-03T20:56:23.066Z,68.07
2022-12-03T20:58:51.317Z,68.95
2022-12-03T21:01:20.595Z,66.35
2022-12-03T21:03:50.624Z,66.10
2022-12-03T21:06:25.109Z,63.03
2022-12-03T21:09:06.935Z,67.15
2022-12-03T21:11:35.718Z,63.17
2022-12-03T21:14:04.085Z,63.15
2022-12-03T21:19:21.820Z,64.90
2022-12-03T21:21:49.604Z,66.57
2022-12-03T21:26:45.523Z,71.32
2022-12-03T21:29:12.915Z,66.43
2022-12-03T21:31:40.315Z,64.93
2022-12-03T21:34:08.475Z,68.35
2022-12-03T21:36:35.906Z,66.30
2022-12-03T21:39:03.452Z,62.70
2022-12-03T21:41:30.832Z,66.53
2022-12-03T21:43:59.538Z,69.18
2022-12-03T21:47:11.699Z,71.63
2022-12-03T21:49:14.412Z,64.80
2022-12-03T21:51:41.827Z,65.85
2022-12-03T21:54:09.228Z,65.07
2022-12-03T21:56:36.631Z,74.05
2022-12-03T21:59:05.360Z,63.30
2022-12-03T22:01:32.832Z,61.63
2022-12-03T22:04:00.291Z,71.75
2022-12-03T22:06:27.794Z,70.25
2022-12-03T22:08:55.220Z,67.13
2022-12-03T22:11:23.317Z,66.78
2022-12-03T22:13:51.203Z,67.32
2022-12-03T22:18:47.385Z,67.63
2022-12-03T22:21:15.675Z,65.20
2022-12-03T22:23:43.099Z,63.65
2022-12-03T22:26:12.464Z,69.40
2022-12-03T22:28:43.018Z,66.97
2022-12-03T22:31:10.961Z,67.60
2022-12-03T22:33:38.475Z,65.22
2022-12-03T22:36:08.205Z,65.43
2022-12-03T22:38:35.595Z,68.78
2022-12-03T22:41:05.481Z,68.57
2022-12-03T22:43:32.881Z,65.57
2022-12-03T22:46:00.364Z,70.20
2022-12-03T22:48:27.835Z,66.20
2022-12-03T22:50:55.201Z,66.60
2022-12-03T22:53:23.928Z,66.93
2022-12-03T22:55:55.156Z,69.78
2022-12-03T22:58:22.832Z,70.40
2022-12-03T23:00:50.296Z,71.03
2022-12-03T23:03:18.042Z,72.75
2022-12-03T23:08:14.068Z,63.55
2022-12-03T23:10:44.019Z,60.63
2022-12-03T23:13:11.934Z,67.50
2022-12-03T23:18:06.654Z,66.47
2022-12-03T23:20:34.036Z,71.40
2022-12-03T23:23:01.445Z,67.13
2022-12-03T23:25:28.862Z,71.63
2022-12-03T23:27:57.573Z,64.97
2022-12-03T23:30:25.051Z,65.15
2022-12-03T23:32:53.061Z,64.38
2022-12-03T23:35:20.459Z,71.97
2022-12-03T23:37:47.977Z,70.38
2022-12-03T23:40:15.412Z,69.47
2022-12-03T23:42:42.890Z,66.15
2022-12-03T23:45:12.217Z,68.45
2022-12-03T23:47:39.621Z,67.78
2022-12-03T23:50:07.718Z,66.05
2022-12-03T23:52:35.942Z,70.20
2022-12-03T23:55:03.390Z,67.28
2022-12-03T23:57:30.823Z,69.15
2022-12-03T23:59:58.284Z,77.10
